< Typhoon 197810 1978 Season Typhoon 197812 >
Typhoon 197811 (CARMEN)
General InformationTrack Information on Google MapsDetailed Wind Information || Disaster Info.ResourceGoogle EarthGE AnimationAtom FeedGeoJSON
Detalied Best Track (Time Zone = UTC)
Year Month Day Hour Lat. Long. Pressure (hPa) Wind (kt) Class Image Chart
1978 8 9 06 16.0 143.0 1006 0 2 -- Chart
1978 8 9 12 16.4 143.5 1006 0 2 -- Chart
1978 8 9 18 16.9 144.2 1006 0 2 -- Chart
1978 8 10 00 17.3 144.1 1006 0 2 -- Chart
1978 8 10 06 17.2 143.7 1006 0 2 -- Chart
1978 8 10 12 16.7 143.5 1004 0 2 -- Chart
1978 8 10 18 16.1 143.8 1000 0 2 -- Chart
1978 8 11 00 15.6 144.3 996 40 3 -- Chart
1978 8 11 06 15.7 144.7 992 40 3 -- Chart
1978 8 11 12 15.8 144.7 990 45 3 -- Chart
1978 8 11 18 15.9 144.5 985 45 3 -- Chart
1978 8 12 00 16.0 144.1 980 55 4 -- Chart
1978 8 12 06 16.8 143.8 980 55 4 -- Chart
1978 8 12 12 17.7 143.3 980 55 4 -- Chart
1978 8 12 18 18.7 142.5 980 55 4 -- Chart
1978 8 13 00 19.9 141.2 975 55 4 -- Chart
1978 8 13 06 21.0 139.7 975 70 5 -- Chart
1978 8 13 12 21.8 138.1 975 70 5 -- Chart
1978 8 13 18 22.7 136.6 975 70 5 -- Chart
1978 8 14 00 23.3 135.5 970 70 5 -- Chart
1978 8 14 06 24.0 133.3 970 75 5 -- Chart
1978 8 14 12 24.7 131.7 965 75 5 -- Chart
1978 8 14 18 25.5 130.2 965 75 5 -- Chart
1978 8 15 00 26.3 128.7 965 75 5 -- Chart
1978 8 15 06 27.1 127.2 965 75 5 -- Chart
1978 8 15 12 27.6 125.8 965 75 5 -- Chart
1978 8 15 18 28.0 124.5 960 75 5 -- Chart
1978 8 16 00 28.2 124.0 960 75 5 -- Chart
1978 8 16 06 28.5 123.6 965 70 5 -- Chart
1978 8 16 12 28.6 123.1 965 65 5 -- Chart
1978 8 16 18 28.7 122.7 970 65 5 -- Chart
1978 8 17 00 28.5 122.4 975 60 4 -- Chart
1978 8 17 06 28.3 122.5 975 60 4 -- Chart
1978 8 17 12 28.3 122.8 980 60 4 -- Chart
1978 8 17 18 28.6 123.2 980 55 4 -- Chart
1978 8 18 00 28.9 123.6 980 55 4 -- Chart
1978 8 18 06 28.5 124.1 980 55 4 -- Chart
1978 8 18 12 28.4 124.5 985 50 4 -- Chart
1978 8 18 18 28.6 124.6 985 50 4 -- Chart
1978 8 19 00 29.4 124.7 985 50 4 -- Chart
1978 8 19 06 30.1 125.3 985 50 4 -- Chart
1978 8 19 12 30.9 125.8 985 50 4 -- Chart
1978 8 19 18 32.6 125.7 985 45 3 -- Chart
1978 8 20 00 34.3 126.5 985 45 3 -- Chart
1978 8 20 06 36.0 128.0 1001 0 6 -- Chart
1978 8 20 12 38.0 130.4 1005 0 6 -- Chart
Japan Meteorological Agency Best Track Data | Correction Date : 1992-10-21
< Typhoon 197810 1978 Season Typhoon 197812 >

Help